createdAt,value
2019-02-22T00:01:22.935Z,39.50
2019-02-22T00:03:27.368Z,34.37
2019-02-22T00:05:32.076Z,34.00
2019-02-22T00:07:36.485Z,33.40
2019-02-22T00:09:49.157Z,28.93
2019-02-22T00:11:45.287Z,37.20
2019-02-22T00:13:49.627Z,38.63
2019-02-22T00:15:53.980Z,42.90
2019-02-22T00:17:58.316Z,32.60
2019-02-22T00:20:02.733Z,38.17
2019-02-22T00:22:07.106Z,38.27
2019-02-22T00:24:11.473Z,37.80
2019-02-22T00:26:15.841Z,41.63
2019-02-22T00:28:20.221Z,36.13
2019-02-22T00:30:24.610Z,39.40
2019-02-22T00:32:28.946Z,38.40
2019-02-22T00:34:33.346Z,34.20
2019-02-22T00:36:37.875Z,38.43
2019-02-22T00:38:42.087Z,39.93
2019-02-22T00:40:47.160Z,45.13
2019-02-22T00:42:51.478Z,36.80
2019-02-22T00:44:55.830Z,44.87
2019-02-22T00:47:00.324Z,41.67
2019-02-22T00:49:05.499Z,42.30
2019-02-22T00:51:09.960Z,42.00
2019-02-22T00:53:14.442Z,41.17
2019-02-22T00:55:18.816Z,43.53
2019-02-22T00:57:23.190Z,39.60
2019-02-22T00:59:27.691Z,32.93
2019-02-22T01:01:32.126Z,38.83
2019-02-22T01:03:36.442Z,38.97
2019-02-22T01:05:40.813Z,37.67
2019-02-22T01:07:45.212Z,37.03
2019-02-22T01:09:49.560Z,34.47
2019-02-22T01:11:53.920Z,44.47
2019-02-22T01:13:58.269Z,33.10
2019-02-22T01:16:02.599Z,37.87
2019-02-22T01:18:06.977Z,37.03
2019-02-22T01:20:11.538Z,27.33
2019-02-22T01:22:15.958Z,36.53
2019-02-22T01:24:20.286Z,38.77
2019-02-22T01:26:24.699Z,40.40
2019-02-22T01:28:29.103Z,36.40
2019-02-22T01:30:33.477Z,36.77
2019-02-22T01:32:37.829Z,29.67
2019-02-22T01:34:42.199Z,33.63
2019-02-22T01:36:46.563Z,36.20
2019-02-22T01:38:50.900Z,24.73
2019-02-22T01:40:55.286Z,44.40
2019-02-22T01:43:00.807Z,36.00
2019-02-22T01:45:05.335Z,28.73
2019-02-22T01:47:17.742Z,33.70
2019-02-22T01:49:22.111Z,42.47
2019-02-22T01:51:26.456Z,37.80
2019-02-22T01:53:30.842Z,45.80
2019-02-22T01:55:35.377Z,38.07
2019-02-22T01:57:39.769Z,30.17
2019-02-22T01:59:44.127Z,44.40
2019-02-22T02:01:48.537Z,44.60
2019-02-22T02:03:52.845Z,43.40
2019-02-22T02:05:57.263Z,40.37
2019-02-22T02:08:01.694Z,45.93
2019-02-22T02:10:06.372Z,35.83
2019-02-22T02:12:10.762Z,38.10
2019-02-22T02:14:15.111Z,37.87
2019-02-22T02:16:19.482Z,39.23
2019-02-22T02:18:23.892Z,37.67
2019-02-22T02:20:28.291Z,38.90
2019-02-22T02:22:32.623Z,45.57
2019-02-22T02:24:37.015Z,41.67
2019-02-22T02:26:41.358Z,42.63
2019-02-22T02:28:45.790Z,52.33
2019-02-22T02:30:50.130Z,44.57
2019-02-22T02:32:54.523Z,48.77
2019-02-22T02:34:58.888Z,48.50
2019-02-22T02:37:03.264Z,40.67
2019-02-22T02:39:07.689Z,44.97
2019-02-22T02:41:12.373Z,39.77
2019-02-22T02:43:16.710Z,40.73
2019-02-22T02:45:21.146Z,45.90
2019-02-22T02:47:25.514Z,45.43
2019-02-22T02:49:29.902Z,38.67
2019-02-22T02:51:34.482Z,45.87
2019-02-22T02:53:38.877Z,42.07
2019-02-22T02:55:43.230Z,41.20
2019-02-22T02:57:47.602Z,43.53
2019-02-22T02:59:51.943Z,44.83
2019-02-22T03:01:56.427Z,37.33
2019-02-22T03:04:00.828Z,40.67
2019-02-22T03:06:09.810Z,44.20
2019-02-22T03:08:14.330Z,42.70
2019-02-22T03:10:18.683Z,46.33
2019-02-22T03:12:24.080Z,41.77
2019-02-22T03:14:28.430Z,44.50
2019-02-22T03:16:32.778Z,45.07
2019-02-22T03:18:37.143Z,45.47
2019-02-22T03:20:41.486Z,50.33
2019-02-22T03:22:45.826Z,38.23
2019-02-22T03:24:53.496Z,34.70
2019-02-22T03:26:54.614Z,45.87
2019-02-22T03:28:58.962Z,46.40
2019-02-22T03:31:03.350Z,41.53
2019-02-22T03:33:07.709Z,41.13
2019-02-22T03:35:12.204Z,46.03
2019-02-22T03:37:16.544Z,44.50
2019-02-22T03:39:20.897Z,40.43
2019-02-22T03:41:32.777Z,43.93
2019-02-22T03:43:29.637Z,43.43
2019-02-22T03:45:33.994Z,39.27
2019-02-22T03:47:38.454Z,40.63
2019-02-22T03:49:42.823Z,43.93
2019-02-22T03:51:47.165Z,39.13
2019-02-22T03:53:57.351Z,44.77
2019-02-22T03:55:59.443Z,41.53
2019-02-22T03:58:03.860Z,34.70
2019-02-22T04:00:08.834Z,37.43
2019-02-22T04:02:13.288Z,38.73
2019-02-22T04:04:17.676Z,44.20
2019-02-22T04:06:22.041Z,41.77
2019-02-22T04:08:26.816Z,36.53
2019-02-22T04:10:31.164Z,39.93
2019-02-22T04:12:35.533Z,41.30
2019-02-22T04:14:40.002Z,40.00
2019-02-22T04:16:45.130Z,38.03
2019-02-22T04:18:49.495Z,39.57
2019-02-22T04:20:53.902Z,35.90
2019-02-22T04:22:58.282Z,37.70
2019-02-22T04:25:02.723Z,40.47
2019-02-22T04:27:07.117Z,34.10
2019-02-22T04:29:11.457Z,35.73
2019-02-22T04:31:15.842Z,40.03
2019-02-22T04:33:20.187Z,37.40
2019-02-22T04:35:24.548Z,44.47
2019-02-22T04:37:28.879Z,32.87
2019-02-22T04:39:33.236Z,33.20
2019-02-22T04:41:37.575Z,38.17
2019-02-22T04:43:41.934Z,30.30
2019-02-22T04:45:46.333Z,35.23
2019-02-22T04:47:50.638Z,35.53
2019-02-22T04:49:55.027Z,30.87
2019-02-22T04:51:59.370Z,32.67
2019-02-22T04:54:03.682Z,31.40
2019-02-22T04:56:08.094Z,33.77
2019-02-22T04:58:12.412Z,25.07
2019-02-22T05:00:16.770Z,38.23
2019-02-22T05:02:21.134Z,36.83
2019-02-22T05:04:25.455Z,32.70
2019-02-22T05:06:29.828Z,38.27
2019-02-22T05:08:34.135Z,36.07
2019-02-22T05:10:38.458Z,28.23
2019-02-22T05:12:42.839Z,34.33
2019-02-22T05:14:47.181Z,29.40
2019-02-22T05:16:51.560Z,22.30
2019-02-22T05:18:55.887Z,32.53
2019-02-22T05:21:00.193Z,25.93
2019-02-22T05:23:07.306Z,37.97
2019-02-22T05:25:08.937Z,29.30
2019-02-22T05:27:13.299Z,23.77
2019-02-22T05:29:17.640Z,27.63
2019-02-22T05:31:21.991Z,33.27
2019-02-22T05:33:26.370Z,27.40
2019-02-22T05:35:30.700Z,27.43
2019-02-22T05:37:35.111Z,25.43
2019-02-22T05:39:39.434Z,24.13
2019-02-22T05:41:43.803Z,31.27
2019-02-22T05:43:48.174Z,30.27
2019-02-22T05:45:52.527Z,30.33
2019-02-22T05:47:56.883Z,32.67
2019-02-22T05:50:01.246Z,29.37
2019-02-22T05:52:05.578Z,29.87
2019-02-22T05:54:09.906Z,31.87
2019-02-22T05:56:14.270Z,31.83
2019-02-22T05:58:18.664Z,32.47
2019-02-22T06:00:22.986Z,26.73
2019-02-22T06:02:27.362Z,30.53
2019-02-22T06:04:31.743Z,30.83
2019-02-22T06:06:36.106Z,29.50
2019-02-22T06:08:40.528Z,23.77
2019-02-22T06:10:44.873Z,25.97
2019-02-22T06:12:49.211Z,32.80
2019-02-22T06:14:53.689Z,32.50
2019-02-22T06:16:58.068Z,34.90
2019-02-22T06:19:02.410Z,28.80
2019-02-22T06:21:06.849Z,34.07
2019-02-22T06:23:11.194Z,31.37
2019-02-22T06:25:15.553Z,27.67
2019-02-22T06:27:19.945Z,28.67
2019-02-22T06:29:24.287Z,35.80
2019-02-22T06:31:28.631Z,38.30
2019-02-22T06:33:33.011Z,26.00
2019-02-22T06:35:37.387Z,30.83
2019-02-22T06:37:41.727Z,27.93
2019-02-22T06:39:46.081Z,30.97
2019-02-22T06:41:50.406Z,30.20
2019-02-22T06:43:54.742Z,29.13
2019-02-22T06:45:59.115Z,31.90
2019-02-22T06:48:03.457Z,28.00
2019-02-22T06:50:07.897Z,28.13
2019-02-22T06:52:12.226Z,24.50
2019-02-22T06:54:16.567Z,29.33
2019-02-22T06:56:20.928Z,27.73
2019-02-22T06:58:25.300Z,30.87
2019-02-22T07:00:30.582Z,24.97
2019-02-22T07:02:34.944Z,27.57
2019-02-22T07:04:39.263Z,28.63
2019-02-22T07:06:43.635Z,26.83
2019-02-22T07:08:48.079Z,28.93
2019-02-22T07:10:57.331Z,28.90
2019-02-22T07:13:05.575Z,24.70
2019-02-22T07:15:10.093Z,26.20
2019-02-22T07:17:14.506Z,26.27
2019-02-22T07:19:18.883Z,26.57
2019-02-22T07:21:23.342Z,26.27
2019-02-22T07:23:27.707Z,28.23
2019-02-22T07:25:32.079Z,30.43
2019-02-22T07:27:36.473Z,27.63
2019-02-22T07:29:40.826Z,27.93
2019-02-22T07:31:50.626Z,28.00
2019-02-22T07:33:55.071Z,24.60
2019-02-22T07:35:59.475Z,49.47
2019-02-22T07:38:03.882Z,29.80
2019-02-22T07:40:08.366Z,27.60
2019-02-22T07:42:12.776Z,27.50
2019-02-22T07:44:17.501Z,27.23
2019-02-22T07:46:21.882Z,27.63
2019-02-22T07:48:26.274Z,29.00
2019-02-22T07:50:30.676Z,28.60
2019-02-22T07:52:35.066Z,36.03
2019-02-22T07:54:39.428Z,25.93
2019-02-22T07:56:43.766Z,27.47
2019-02-22T07:58:48.140Z,31.00
2019-02-22T08:00:52.478Z,27.00
2019-02-22T08:02:56.884Z,29.53
2019-02-22T08:05:01.251Z,26.40
2019-02-22T08:07:05.609Z,34.43
2019-02-22T08:09:09.955Z,28.70
2019-02-22T08:11:14.294Z,33.20
2019-02-22T08:13:20.059Z,28.97
2019-02-22T08:15:23.056Z,28.53
2019-02-22T08:17:27.398Z,26.60
2019-02-22T08:19:31.778Z,29.13
2019-02-22T08:21:36.113Z,26.27
2019-02-22T08:23:40.480Z,29.97
2019-02-22T08:25:44.965Z,31.77
2019-02-22T08:27:53.904Z,34.40
2019-02-22T08:29:53.758Z,29.00
2019-02-22T08:31:58.134Z,33.50
2019-02-22T08:34:02.518Z,32.70
2019-02-22T08:36:06.847Z,30.83
2019-02-22T08:38:11.225Z,32.53
2019-02-22T08:40:15.726Z,26.40
2019-02-22T08:42:20.103Z,28.77
2019-02-22T08:44:24.469Z,29.57
2019-02-22T08:46:28.827Z,31.13
2019-02-22T08:48:33.158Z,34.47
2019-02-22T08:50:37.537Z,26.80
2019-02-22T08:52:41.868Z,34.33
2019-02-22T08:54:47.324Z,33.53
2019-02-22T08:56:50.618Z,34.93
2019-02-22T08:58:54.941Z,34.37
2019-02-22T09:00:59.315Z,29.07
2019-02-22T09:03:03.676Z,33.33
2019-02-22T09:05:08.398Z,29.20
2019-02-22T09:07:12.717Z,36.83
2019-02-22T09:09:17.051Z,32.13
2019-02-22T09:11:21.424Z,32.27
2019-02-22T09:13:25.772Z,30.43
2019-02-22T09:15:30.137Z,32.50
2019-02-22T09:17:34.452Z,32.50
2019-02-22T09:19:38.835Z,37.10
2019-02-22T09:21:43.267Z,30.87
2019-02-22T09:23:48.122Z,30.37
2019-02-22T09:25:52.485Z,34.37
2019-02-22T09:27:56.810Z,32.07
2019-02-22T09:30:01.186Z,28.37
2019-02-22T09:32:05.601Z,30.13
2019-02-22T09:34:09.935Z,29.03
2019-02-22T09:36:14.324Z,28.47
2019-02-22T09:38:18.755Z,29.40
2019-02-22T09:40:23.122Z,27.03
2019-02-22T09:42:27.468Z,27.23
2019-02-22T09:44:31.819Z,25.93
2019-02-22T09:46:36.178Z,30.53
2019-02-22T09:48:40.590Z,27.17
2019-02-22T09:50:44.974Z,33.87
2019-02-22T09:52:49.307Z,30.90
2019-02-22T09:54:53.642Z,24.37
2019-02-22T09:56:57.998Z,30.97
2019-02-22T09:59:02.350Z,26.17
2019-02-22T10:01:06.767Z,28.27
2019-02-22T10:03:11.113Z,29.57
2019-02-22T10:05:15.517Z,27.00
2019-02-22T10:07:19.880Z,25.90
2019-02-22T10:09:24.273Z,35.30
2019-02-22T10:11:28.648Z,28.43
2019-02-22T10:13:33.124Z,31.07
2019-02-22T10:15:37.458Z,32.23
2019-02-22T10:17:41.813Z,28.93
2019-02-22T10:19:46.262Z,32.43
2019-02-22T10:21:50.605Z,34.30
2019-02-22T10:23:55.015Z,33.10
2019-02-22T10:25:59.417Z,30.07
2019-02-22T10:28:03.814Z,33.43
2019-02-22T10:30:08.538Z,31.30
2019-02-22T10:32:12.870Z,29.27
2019-02-22T10:34:17.281Z,31.27
2019-02-22T10:36:21.671Z,32.20
2019-02-22T10:38:26.027Z,28.17
2019-02-22T10:40:30.393Z,27.33
2019-02-22T10:42:34.921Z,33.93
2019-02-22T10:44:39.301Z,26.47
2019-02-22T10:46:43.709Z,29.20
2019-02-22T10:48:48.067Z,24.00
2019-02-22T10:50:53.146Z,28.90
2019-02-22T10:53:02.295Z,31.13
2019-02-22T10:55:01.926Z,26.77
2019-02-22T10:57:06.374Z,28.40
2019-02-22T10:59:10.708Z,33.80
2019-02-22T11:01:15.043Z,31.77
2019-02-22T11:03:19.492Z,30.90
2019-02-22T11:05:23.827Z,29.33
2019-02-22T11:07:28.163Z,38.40
2019-02-22T11:09:32.623Z,31.43
2019-02-22T11:11:36.989Z,34.40
2019-02-22T11:13:41.393Z,27.87
2019-02-22T11:15:45.809Z,23.07
2019-02-22T11:17:50.178Z,25.37
2019-02-22T11:19:54.528Z,26.37
2019-02-22T11:21:59.019Z,24.53
2019-02-22T11:24:05.141Z,22.60
2019-02-22T11:26:09.531Z,28.20
2019-02-22T11:28:14.013Z,30.00
2019-02-22T11:30:18.483Z,29.30
2019-02-22T11:32:22.868Z,29.53
2019-02-22T11:34:27.557Z,28.07
2019-02-22T11:36:32.064Z,32.90
2019-02-22T11:38:36.830Z,22.70
2019-02-22T11:40:41.237Z,26.40
2019-02-22T11:42:45.650Z,29.50
2019-02-22T11:44:50.063Z,25.00
2019-02-22T11:46:54.403Z,32.97
2019-02-22T11:48:58.739Z,24.37
2019-02-22T11:51:03.138Z,25.97
2019-02-22T11:53:07.579Z,20.00
2019-02-22T11:55:12.073Z,27.53
2019-02-22T11:57:16.551Z,23.50
2019-02-22T11:59:20.913Z,27.20
2019-02-22T12:01:25.407Z,24.20
2019-02-22T12:03:29.770Z,28.43
2019-02-22T12:05:34.118Z,31.77
2019-02-22T12:07:38.529Z,33.53
2019-02-22T12:09:43.783Z,43.57
2019-02-22T12:11:48.455Z,27.73
2019-02-22T12:13:52.797Z,22.60
2019-02-22T12:15:57.263Z,25.33
2019-02-22T12:18:01.653Z,26.43
2019-02-22T12:20:06.232Z,31.40
2019-02-22T12:22:10.642Z,24.63
2019-02-22T12:24:15.049Z,29.83
2019-02-22T12:26:19.394Z,38.30
2019-02-22T12:28:23.726Z,28.40
2019-02-22T12:30:28.238Z,29.47
2019-02-22T12:32:32.557Z,28.73
2019-02-22T12:34:36.999Z,35.13
2019-02-22T12:36:41.314Z,29.80
2019-02-22T12:38:45.686Z,28.97
2019-02-22T12:40:50.098Z,27.63
2019-02-22T12:42:54.477Z,28.10
2019-02-22T12:45:02.858Z,30.67
2019-02-22T12:47:03.482Z,28.70
2019-02-22T12:49:07.850Z,26.53
2019-02-22T12:51:12.271Z,24.83
2019-02-22T12:53:16.663Z,31.37
2019-02-22T12:55:21.025Z,22.10
2019-02-22T12:57:25.395Z,27.90
2019-02-22T12:59:29.759Z,26.57
2019-02-22T13:01:34.143Z,25.97
2019-02-22T13:03:38.525Z,26.50
2019-02-22T13:05:42.906Z,26.03
2019-02-22T13:07:47.246Z,25.80
2019-02-22T13:09:51.665Z,26.53
2019-02-22T13:11:56.467Z,23.83
2019-02-22T13:14:00.948Z,24.53
2019-02-22T13:16:05.485Z,22.50
2019-02-22T13:18:09.875Z,21.97
2019-02-22T13:20:14.603Z,30.57
2019-02-22T13:22:18.970Z,24.80
2019-02-22T13:24:23.376Z,26.40
2019-02-22T13:26:27.798Z,33.87
2019-02-22T13:28:32.254Z,26.37
2019-02-22T13:30:36.680Z,31.67
2019-02-22T13:32:41.073Z,29.03
2019-02-22T13:34:50.021Z,31.97
2019-02-22T13:36:54.662Z,33.57
2019-02-22T13:38:59.069Z,31.73
2019-02-22T13:41:03.544Z,27.10
2019-02-22T13:43:08.055Z,24.63
2019-02-22T13:45:12.575Z,23.87
2019-02-22T13:47:16.915Z,29.63
2019-02-22T13:49:21.304Z,32.00
2019-02-22T13:51:25.649Z,30.03
2019-02-22T13:53:30.037Z,30.27
2019-02-22T13:55:34.427Z,28.17
2019-02-22T13:57:38.771Z,29.87
2019-02-22T13:59:43.153Z,28.17
2019-02-22T14:01:47.595Z,28.53
2019-02-22T14:03:51.949Z,34.87
2019-02-22T14:05:56.334Z,30.70
2019-02-22T14:08:00.689Z,31.83
2019-02-22T14:10:05.198Z,27.33
2019-02-22T14:12:09.610Z,30.10
2019-02-22T14:14:14.065Z,30.90
2019-02-22T14:16:18.448Z,32.33
2019-02-22T14:18:22.849Z,25.67
2019-02-22T14:20:27.202Z,24.00
2019-02-22T14:22:31.570Z,26.63
2019-02-22T14:24:36.035Z,28.30
2019-02-22T14:26:40.397Z,27.20
2019-02-22T14:28:44.770Z,27.27
2019-02-22T14:30:49.180Z,25.97
2019-02-22T14:32:53.540Z,24.37
2019-02-22T14:34:57.971Z,31.43
2019-02-22T14:37:02.374Z,34.27
2019-02-22T14:39:06.923Z,24.53
2019-02-22T14:41:11.290Z,29.37
2019-02-22T14:43:16.831Z,35.23
2019-02-22T14:45:20.095Z,30.93
2019-02-22T14:47:24.485Z,28.97
2019-02-22T14:49:28.849Z,27.47
2019-02-22T14:51:33.247Z,31.77
2019-02-22T14:53:37.611Z,27.93
2019-02-22T14:55:42.073Z,28.60
2019-02-22T14:57:46.454Z,25.27
2019-02-22T14:59:50.855Z,30.17
2019-02-22T15:01:55.226Z,28.03
2019-02-22T15:03:59.579Z,22.13
2019-02-22T15:06:03.994Z,32.00
2019-02-22T15:08:08.385Z,36.17
2019-02-22T15:10:12.887Z,35.40
2019-02-22T15:12:17.291Z,29.63
2019-02-22T15:14:21.698Z,30.00
2019-02-22T15:16:32.208Z,27.83
2019-02-22T15:18:36.666Z,30.93
2019-02-22T15:20:41.119Z,31.40
2019-02-22T15:22:45.569Z,28.07
2019-02-22T15:24:49.883Z,28.90
2019-02-22T15:26:54.298Z,32.10
2019-02-22T15:28:58.864Z,32.20
2019-02-22T15:31:03.338Z,32.23
2019-02-22T15:33:07.744Z,31.07
2019-02-22T15:35:13.131Z,31.77
2019-02-22T15:37:17.526Z,31.63
2019-02-22T15:39:21.978Z,40.23
2019-02-22T15:41:26.436Z,29.77
2019-02-22T15:43:30.832Z,34.03
2019-02-22T15:45:35.226Z,32.27
2019-02-22T15:47:39.637Z,27.87
2019-02-22T15:49:44.005Z,32.17
2019-02-22T15:51:48.421Z,29.80
2019-02-22T15:53:52.817Z,30.00
2019-02-22T15:55:57.198Z,25.57
2019-02-22T15:58:01.570Z,31.00
2019-02-22T16:00:09.311Z,29.53
2019-02-22T16:02:13.705Z,32.07
2019-02-22T16:04:23.152Z,30.63
2019-02-22T16:06:27.539Z,25.40
2019-02-22T16:08:31.974Z,28.50
2019-02-22T16:10:36.525Z,30.90
2019-02-22T16:12:40.963Z,30.23
2019-02-22T16:14:45.314Z,27.70
2019-02-22T16:16:49.660Z,29.43
2019-02-22T16:18:54.098Z,26.07
2019-02-22T16:20:58.428Z,30.50
2019-02-22T16:23:02.802Z,20.27
2019-02-22T16:25:18.543Z,23.90
2019-02-22T16:27:11.610Z,25.87
2019-02-22T16:29:15.962Z,23.50
2019-02-22T16:31:20.347Z,27.43
2019-02-22T16:33:24.751Z,21.07
2019-02-22T16:35:29.171Z,26.17
2019-02-22T16:37:33.538Z,28.97
2019-02-22T16:39:37.965Z,27.93
2019-02-22T16:41:42.320Z,23.03
2019-02-22T16:43:46.679Z,26.07
2019-02-22T16:45:51.058Z,23.30
2019-02-22T16:47:55.428Z,24.13
2019-02-22T16:49:59.790Z,23.13
2019-02-22T16:52:04.178Z,23.50
2019-02-22T16:54:08.574Z,28.37
2019-02-22T16:56:12.929Z,22.30
2019-02-22T16:58:17.322Z,24.70
2019-02-22T17:00:21.697Z,25.17
2019-02-22T17:02:26.174Z,24.37
2019-02-22T17:04:30.588Z,25.07
2019-02-22T17:06:34.982Z,25.30
2019-02-22T17:08:39.306Z,24.13
2019-02-22T17:10:43.703Z,29.27
2019-02-22T17:12:48.096Z,31.03
2019-02-22T17:14:52.446Z,24.77
2019-02-22T17:16:56.851Z,28.00
2019-02-22T17:19:01.244Z,26.43
2019-02-22T17:21:05.573Z,25.80
2019-02-22T17:23:10.079Z,28.67
2019-02-22T17:25:15.315Z,26.30
2019-02-22T17:27:19.722Z,27.70
2019-02-22T17:29:24.102Z,37.77
2019-02-22T17:31:28.430Z,23.77
2019-02-22T17:33:32.782Z,30.80
2019-02-22T17:35:37.130Z,23.33
2019-02-22T17:37:41.502Z,31.20
2019-02-22T17:39:46.143Z,26.37
2019-02-22T17:41:50.230Z,33.57
2019-02-22T17:43:54.621Z,25.70
2019-02-22T17:45:58.979Z,22.63
2019-02-22T17:48:03.374Z,28.30
2019-02-22T17:50:08.460Z,21.07
2019-02-22T17:52:12.802Z,25.70
2019-02-22T17:54:17.128Z,33.60
2019-02-22T17:56:21.499Z,21.03
2019-02-22T17:58:25.842Z,28.23
2019-02-22T18:00:30.239Z,29.43
2019-02-22T18:02:34.710Z,24.80
2019-02-22T18:04:40.910Z,19.57
2019-02-22T18:06:45.361Z,23.87
2019-02-22T18:08:50.064Z,18.10
2019-02-22T18:10:54.417Z,27.23
2019-02-22T18:12:58.789Z,18.83
2019-02-22T18:15:03.504Z,23.50
2019-02-22T18:17:08.829Z,23.83
2019-02-22T18:19:12.313Z,21.67
2019-02-22T18:21:16.683Z,21.80
2019-02-22T18:23:21.034Z,22.37
2019-02-22T18:25:25.378Z,20.90
2019-02-22T18:27:29.812Z,16.93
2019-02-22T18:29:35.667Z,19.90
2019-02-22T18:31:38.578Z,24.83
2019-02-22T18:33:42.944Z,20.30
2019-02-22T18:35:47.263Z,17.37
2019-02-22T18:37:51.629Z,65.50
2019-02-22T18:39:56.025Z,19.07
2019-02-22T18:42:00.419Z,17.63
2019-02-22T18:44:04.802Z,21.97
2019-02-22T18:46:09.239Z,19.23
2019-02-22T18:48:14.373Z,16.77
2019-02-22T18:50:18.734Z,18.43
2019-02-22T18:52:23.186Z,19.20
2019-02-22T18:54:27.548Z,14.73
2019-02-22T18:56:31.865Z,17.80
2019-02-22T18:58:36.219Z,19.87
2019-02-22T19:00:40.563Z,15.60
2019-02-22T19:02:44.948Z,17.67
2019-02-22T19:04:49.307Z,15.30
2019-02-22T19:06:53.650Z,19.10
2019-02-22T19:08:58.082Z,14.13
2019-02-22T19:11:02.514Z,14.07
2019-02-22T19:13:06.900Z,17.27
2019-02-22T19:15:12.337Z,13.93
2019-02-22T19:17:16.715Z,14.93
2019-02-22T19:19:21.123Z,12.40
2019-02-22T19:21:25.508Z,15.03
2019-02-22T19:23:30.233Z,16.70
2019-02-22T19:25:34.623Z,16.37
2019-02-22T19:27:39.051Z,18.33
2019-02-22T19:29:43.413Z,18.23
2019-02-22T19:31:47.830Z,15.23
2019-02-22T19:33:52.218Z,22.97
2019-02-22T19:35:56.663Z,12.87
2019-02-22T19:38:01.081Z,13.37
2019-02-22T19:40:07.329Z,12.77
2019-02-22T19:42:12.601Z,19.30
2019-02-22T19:44:16.975Z,12.53
2019-02-22T19:46:21.418Z,15.87
2019-02-22T19:48:25.830Z,13.73
2019-02-22T19:50:40.834Z,15.50
2019-02-22T19:52:35.087Z,16.53
2019-02-22T19:54:39.445Z,17.00
2019-02-22T19:56:43.829Z,13.77
2019-02-22T19:58:48.247Z,17.47
2019-02-22T20:00:52.671Z,14.43
2019-02-22T20:02:57.054Z,13.47
2019-02-22T20:05:01.444Z,14.33
2019-02-22T20:07:05.901Z,17.07
2019-02-22T20:09:10.523Z,18.23
2019-02-22T20:11:14.967Z,17.37
2019-02-22T20:13:20.074Z,15.90
2019-02-22T20:15:24.516Z,18.67
2019-02-22T20:17:28.969Z,19.63
2019-02-22T20:19:33.349Z,21.60
2019-02-22T20:21:37.779Z,15.73
2019-02-22T20:23:42.176Z,15.80
2019-02-22T20:25:46.571Z,21.27
2019-02-22T20:27:50.967Z,15.60
2019-02-22T20:29:55.416Z,15.97
2019-02-22T20:31:59.871Z,20.17
2019-02-22T20:34:04.337Z,21.27
2019-02-22T20:36:08.705Z,18.27
2019-02-22T20:38:13.090Z,19.63
2019-02-22T20:40:17.508Z,17.13
2019-02-22T20:42:21.879Z,20.73
2019-02-22T20:44:26.252Z,22.13
2019-02-22T20:46:30.767Z,18.60
2019-02-22T20:48:35.671Z,16.83
2019-02-22T20:50:40.104Z,22.40
2019-02-22T20:52:44.502Z,20.07
2019-02-22T20:54:48.930Z,18.90
2019-02-22T20:56:53.348Z,16.20
2019-02-22T20:58:57.771Z,19.30
2019-02-22T21:01:02.150Z,21.20
2019-02-22T21:03:06.623Z,24.67
2019-02-22T21:05:11.232Z,24.00
2019-02-22T21:07:15.641Z,27.60
2019-02-22T21:09:19.991Z,29.13
2019-02-22T21:11:24.376Z,27.40
2019-02-22T21:13:28.776Z,29.83
2019-02-22T21:15:33.146Z,28.27
2019-02-22T21:17:37.510Z,20.77
2019-02-22T21:19:41.961Z,23.83
2019-02-22T21:21:46.383Z,22.57
2019-02-22T21:23:52.091Z,21.70
2019-02-22T21:25:56.473Z,19.27
2019-02-22T21:28:00.870Z,26.10
2019-02-22T21:30:05.502Z,22.67
2019-02-22T21:32:09.898Z,20.13
2019-02-22T21:34:14.337Z,24.33
2019-02-22T21:36:18.810Z,23.27
2019-02-22T21:38:23.326Z,27.90
2019-02-22T21:40:27.733Z,28.60
2019-02-22T21:42:32.082Z,24.77
2019-02-22T21:44:36.482Z,23.87
2019-02-22T21:46:40.883Z,22.47
2019-02-22T21:48:45.272Z,24.33
2019-02-22T21:50:49.663Z,20.80
2019-02-22T21:52:54.089Z,26.93
2019-02-22T21:54:58.405Z,21.50
2019-02-22T21:57:02.767Z,26.20
2019-02-22T21:59:07.099Z,25.73
2019-02-22T22:01:11.486Z,23.97
2019-02-22T22:03:15.846Z,17.20
2019-02-22T22:05:20.963Z,21.53
2019-02-22T22:07:25.297Z,23.17
2019-02-22T22:09:29.685Z,21.03
2019-02-22T22:11:34.110Z,24.63
2019-02-22T22:13:38.605Z,26.33
2019-02-22T22:15:42.949Z,20.93
2019-02-22T22:17:47.257Z,19.47
2019-02-22T22:19:52.295Z,20.47
2019-02-22T22:21:57.106Z,21.93
2019-02-22T22:24:02.262Z,23.07
2019-02-22T22:26:10.185Z,22.77
2019-02-22T22:28:12.104Z,24.30
2019-02-22T22:30:20.771Z,22.63
2019-02-22T22:32:25.175Z,23.50
2019-02-22T22:34:29.553Z,20.83
2019-02-22T22:36:33.947Z,25.37
2019-02-22T22:38:38.284Z,24.60
2019-02-22T22:40:42.658Z,22.57
2019-02-22T22:42:47.076Z,27.20
2019-02-22T22:44:51.390Z,21.43
2019-02-22T22:46:55.759Z,21.30
2019-02-22T22:49:00.141Z,24.70
2019-02-22T22:51:04.497Z,21.40
2019-02-22T22:53:08.821Z,24.00
2019-02-22T22:55:13.234Z,21.63
2019-02-22T22:57:17.609Z,20.30
2019-02-22T22:59:22.025Z,23.23
2019-02-22T23:01:27.521Z,24.83
2019-02-22T23:03:31.952Z,20.73
2019-02-22T23:05:36.390Z,19.37
2019-02-22T23:07:40.739Z,20.57
2019-02-22T23:09:45.130Z,20.57
2019-02-22T23:11:49.570Z,21.13
2019-02-22T23:13:53.910Z,21.13
2019-02-22T23:15:58.263Z,20.97
2019-02-22T23:18:02.598Z,19.47
2019-02-22T23:20:07.060Z,19.87
2019-02-22T23:22:11.438Z,18.43
2019-02-22T23:24:15.790Z,17.80
2019-02-22T23:26:20.194Z,19.03
2019-02-22T23:28:24.585Z,19.43
2019-02-22T23:30:28.939Z,16.20
2019-02-22T23:32:33.354Z,21.73
2019-02-22T23:34:37.773Z,22.20
2019-02-22T23:36:42.409Z,24.67
2019-02-22T23:38:46.780Z,20.83
2019-02-22T23:40:51.106Z,17.90
2019-02-22T23:42:55.465Z,16.57
2019-02-22T23:44:59.876Z,17.50
2019-02-22T23:47:04.291Z,22.33
2019-02-22T23:49:13.261Z,19.53
2019-02-22T23:51:13.932Z,21.63
2019-02-22T23:53:18.259Z,15.63
2019-02-22T23:55:22.890Z,18.37
2019-02-22T23:57:27.246Z,14.97
2019-02-22T23:59:31.574Z,18.33
